Time;durP1;ratioP1;P1;durP2;ratioP2;P2;SDS_P1;SDS_P2;PMS_P1;PMS_P2;Temp;Humidity;BMP_temperature;BMP_pressure;BME280_temperature;BME280_humidity;BME280_pressure;Samples;Min_cycle;Max_cycle;Signal;HPM_P1;HPM_P2
2023/06/23 00:00:20;;;;;;;6.40;3.78;;;;;;;;;;5107486;28;20272;-59
2023/06/23 00:02:47;;;;;;;5.97;3.50;;;;;;;;;;5092619;28;20207;-59
2023/06/23 00:05:15;;;;;;;4.80;3.78;;;;;;;;;;5090726;28;20203;-59
2023/06/23 00:07:43;;;;;;;4.25;3.35;;;;;;;;;;5099238;28;20228;-59
2023/06/23 00:10:11;;;;;;;4.75;3.78;;;;;;;;;;5098486;28;20303;-59
2023/06/23 00:12:41;;;;;;;6.72;3.83;;;;;;;;;;5099057;28;20584;-59
2023/06/23 00:15:10;;;;;;;4.30;3.60;;;;;;;;;;5098763;28;20216;-60
2023/06/23 00:17:40;;;;;;;6.07;3.83;;;;;;;;;;5098083;28;20314;-60
2023/06/23 00:20:10;;;;;;;5.93;3.40;;;;;;;;;;5080796;28;20215;-60
2023/06/23 00:22:38;;;;;;;5.90;3.60;;;;;;;;;;5078005;28;20209;-60
2023/06/23 00:25:09;;;;;;;6.20;3.80;;;;;;;;;;5088860;28;20228;-60
2023/06/23 00:27:38;;;;;;;5.18;3.60;;;;;;;;;;5098073;28;20192;-60
2023/06/23 00:30:06;;;;;;;5.47;3.70;;;;;;;;;;5097864;28;20203;-60
2023/06/23 00:32:37;;;;;;;6.00;3.63;;;;;;;;;;5097605;28;20203;-60
2023/06/23 00:35:08;;;;;;;5.60;3.88;;;;;;;;;;5097153;28;20212;-60
2023/06/23 00:37:37;;;;;;;5.25;3.63;;;;;;;;;;5077885;28;20248;-60
2023/06/23 00:40:08;;;;;;;4.40;3.70;;;;;;;;;;5077824;28;20215;-60
2023/06/23 00:42:44;;;;;;;5.63;3.60;;;;;;;;;;5077818;28;20204;-60
2023/06/23 00:45:13;;;;;;;4.88;3.65;;;;;;;;;;5077658;28;20211;-60
2023/06/23 00:47:42;;;;;;;4.70;3.30;;;;;;;;;;5077437;28;20200;-60
2023/06/23 00:50:16;;;;;;;4.68;3.72;;;;;;;;;;5077627;28;20212;-60
2023/06/23 00:52:49;;;;;;;5.40;3.60;;;;;;;;;;5078195;28;20207;-60
2023/06/23 00:55:18;;;;;;;6.78;3.80;;;;;;;;;;5077221;28;20200;-60
2023/06/23 00:57:48;;;;;;;4.72;3.50;;;;;;;;;;5094460;28;20318;-60
2023/06/23 01:00:17;;;;;;;5.75;3.42;;;;;;;;;;5097703;28;20204;-60
2023/06/23 01:02:48;;;;;;;5.13;3.70;;;;;;;;;;5097410;28;20246;-60
2023/06/23 01:05:21;;;;;;;4.57;3.67;;;;;;;;;;5097676;28;20269;-60
2023/06/23 01:07:51;;;;;;;4.45;3.50;;;;;;;;;;5097299;28;20210;-60
2023/06/23 01:10:22;;;;;;;4.97;3.20;;;;;;;;;;5097139;28;20208;-60
2023/06/23 01:12:52;;;;;;;4.38;3.28;;;;;;;;;;5080090;28;20211;-60
2023/06/23 01:15:23;;;;;;;3.97;3.58;;;;;;;;;;5097066;28;20208;-60
2023/06/23 01:17:55;;;;;;;4.35;3.25;;;;;;;;;;5097412;28;20235;-60
2023/06/23 01:20:26;;;;;;;5.63;3.75;;;;;;;;;;5097313;28;20203;-60
2023/06/23 01:23:03;;;;;;;4.15;3.53;;;;;;;;;;5097620;28;20548;-60
2023/06/23 01:25:38;;;;;;;5.40;3.72;;;;;;;;;;5097880;28;20203;-60
2023/06/23 01:28:18;;;;;;;4.55;3.40;;;;;;;;;;5096570;28;20645;-60
2023/06/23 01:30:53;;;;;;;6.05;3.38;;;;;;;;;;5097383;28;20203;-60
2023/06/23 01:33:23;;;;;;;4.30;3.42;;;;;;;;;;5101456;28;20203;-60
2023/06/23 01:35:56;;;;;;;5.07;3.63;;;;;;;;;;5101222;28;20470;-60
2023/06/23 01:38:27;;;;;;;4.05;3.65;;;;;;;;;;5101197;28;20660;-60
2023/06/23 01:40:57;;;;;;;5.97;3.90;;;;;;;;;;5101370;28;20203;-60
2023/06/23 01:43:30;;;;;;;4.03;3.35;;;;;;;;;;5100640;28;20216;-60
2023/06/23 01:46:03;;;;;;;4.15;3.30;;;;;;;;;;5101574;28;20207;-60
2023/06/23 01:48:32;;;;;;;4.15;3.20;;;;;;;;;;5100632;28;20207;-60
2023/06/23 01:51:02;;;;;;;4.95;3.60;;;;;;;;;;5101653;28;20296;-60
2023/06/23 01:53:32;;;;;;;5.53;3.58;;;;;;;;;;5100263;28;20504;-60
2023/06/23 01:56:01;;;;;;;6.20;3.83;;;;;;;;;;5098284;28;20243;-60
2023/06/23 01:58:30;;;;;;;4.22;3.63;;;;;;;;;;5080626;28;20322;-60
2023/06/23 02:01:02;;;;;;;3.95;3.50;;;;;;;;;;5087763;28;20277;-60
2023/06/23 02:03:32;;;;;;;4.93;3.92;;;;;;;;;;5100627;28;20204;-60
2023/06/23 02:06:00;;;;;;;4.38;3.67;;;;;;;;;;5101152;28;20264;-60
2023/06/23 02:08:29;;;;;;;4.38;3.97;;;;;;;;;;5100619;28;20207;-60
2023/06/23 02:10:57;;;;;;;4.28;3.78;;;;;;;;;;5101522;28;20211;-60
2023/06/23 02:13:27;;;;;;;4.32;3.65;;;;;;;;;;5100710;28;20264;-60
2023/06/23 02:15:55;;;;;;;4.38;3.78;;;;;;;;;;5100451;28;20204;-60
2023/06/23 02:18:25;;;;;;;5.15;3.80;;;;;;;;;;5099996;28;20236;-60
2023/06/23 02:20:55;;;;;;;5.05;4.38;;;;;;;;;;5100596;28;20202;-60
2023/06/23 02:23:25;;;;;;;4.65;3.83;;;;;;;;;;5100536;28;20239;-60
2023/06/23 02:25:53;;;;;;;5.95;4.07;;;;;;;;;;5100384;28;20302;-60
2023/06/23 02:28:21;;;;;;;5.93;4.55;;;;;;;;;;5100583;28;20609;-60
2023/06/23 02:30:49;;;;;;;5.88;4.35;;;;;;;;;;5100283;28;20571;-59
2023/06/23 02:33:16;;;;;;;4.72;4.13;;;;;;;;;;5080583;28;20243;-59
2023/06/23 02:35:46;;;;;;;7.22;4.00;;;;;;;;;;5080269;28;20489;-59
2023/06/23 02:38:15;;;;;;;5.00;4.38;;;;;;;;;;5079448;28;20235;-60
2023/06/23 02:40:44;;;;;;;6.80;4.68;;;;;;;;;;5080181;28;20204;-60
2023/06/23 02:43:14;;;;;;;4.50;4.10;;;;;;;;;;5080386;28;20265;-60
2023/06/23 02:45:43;;;;;;;9.00;4.65;;;;;;;;;;5080211;28;20560;-60
2023/06/23 02:48:13;;;;;;;5.88;4.43;;;;;;;;;;5083492;28;20298;-59
2023/06/23 02:50:41;;;;;;;6.13;4.53;;;;;;;;;;5079919;28;20212;-59
2023/06/23 02:53:16;;;;;;;6.68;5.20;;;;;;;;;;5080029;28;20211;-59
2023/06/23 02:55:45;;;;;;;8.48;4.85;;;;;;;;;;5079481;28;20200;-59
2023/06/23 02:58:16;;;;;;;5.72;4.32;;;;;;;;;;5079689;28;20227;-59
2023/06/23 03:00:44;;;;;;;5.07;4.57;;;;;;;;;;5079931;28;20509;-59
2023/06/23 03:03:14;;;;;;;5.45;4.80;;;;;;;;;;5079397;28;20588;-59
2023/06/23 03:05:42;;;;;;;5.90;3.97;;;;;;;;;;5084635;28;20583;-59
2023/06/23 03:08:10;;;;;;;4.82;4.00;;;;;;;;;;5099803;28;20264;-59
2023/06/23 03:10:39;;;;;;;4.97;3.88;;;;;;;;;;5087318;28;20208;-59
2023/06/23 03:13:07;;;;;;;4.50;3.72;;;;;;;;;;5079482;28;20204;-59
2023/06/23 03:15:36;;;;;;;4.90;3.88;;;;;;;;;;5079439;28;20603;-59
2023/06/23 03:18:06;;;;;;;4.53;3.90;;;;;;;;;;5079085;28;20717;-59
2023/06/23 03:20:37;;;;;;;4.57;3.72;;;;;;;;;;5078500;28;20204;-59
2023/06/23 03:23:06;;;;;;;3.47;3.10;;;;;;;;;;5079091;28;20266;-59
2023/06/23 03:25:36;;;;;;;4.65;3.55;;;;;;;;;;5079099;28;20211;-59
2023/06/23 03:28:08;;;;;;;3.33;3.00;;;;;;;;;;5078988;28;20208;-59
2023/06/23 03:30:39;;;;;;;3.53;2.97;;;;;;;;;;5079354;28;20204;-59
2023/06/23 03:33:11;;;;;;;3.33;3.03;;;;;;;;;;5078808;28;20204;-59
2023/06/23 03:35:42;;;;;;;3.47;2.75;;;;;;;;;;5078841;28;20586;-59
2023/06/23 03:38:11;;;;;;;3.78;2.70;;;;;;;;;;5078954;28;20343;-60
2023/06/23 03:40:41;;;;;;;3.45;2.28;;;;;;;;;;5078996;28;20204;-59
2023/06/23 03:43:13;;;;;;;3.00;2.60;;;;;;;;;;5078596;28;20536;-59
2023/06/23 03:45:42;;;;;;;4.38;2.58;;;;;;;;;;5078664;28;20481;-59
2023/06/23 03:48:10;;;;;;;2.50;2.30;;;;;;;;;;5078895;28;20227;-59
2023/06/23 03:50:40;;;;;;;2.67;2.33;;;;;;;;;;5078794;28;20296;-59
2023/06/23 03:53:08;;;;;;;2.53;2.33;;;;;;;;;;5078096;28;20204;-59
2023/06/23 03:55:38;;;;;;;2.92;2.20;;;;;;;;;;5077540;28;20208;-59
2023/06/23 03:58:06;;;;;;;2.95;2.10;;;;;;;;;;5079049;28;20234;-59
2023/06/23 04:00:37;;;;;;;2.80;2.17;;;;;;;;;;5097952;28;20200;-59
2023/06/23 04:03:07;;;;;;;2.53;2.33;;;;;;;;;;5097943;28;20204;-60
2023/06/23 04:05:35;;;;;;;2.35;2.10;;;;;;;;;;5098626;28;20211;-59
2023/06/23 04:08:05;;;;;;;3.00;1.98;;;;;;;;;;5098312;28;20299;-59
2023/06/23 04:10:34;;;;;;;2.95;2.03;;;;;;;;;;5098108;28;20204;-59
2023/06/23 04:13:02;;;;;;;2.10;1.90;;;;;;;;;;5098124;28;20587;-59
2023/06/23 04:15:30;;;;;;;2.58;1.95;;;;;;;;;;5098427;28;20230;-59
2023/06/23 04:18:00;;;;;;;2.10;1.90;;;;;;;;;;5089545;28;20228;-59
2023/06/23 04:20:28;;;;;;;2.20;2.00;;;;;;;;;;5077602;28;20255;-59
2023/06/23 04:22:57;;;;;;;2.35;1.90;;;;;;;;;;5077425;28;20488;-59
2023/06/23 04:25:26;;;;;;;1.90;1.80;;;;;;;;;;5077157;28;20204;-59
2023/06/23 04:27:57;;;;;;;2.08;1.55;;;;;;;;;;5077234;28;20197;-60
2023/06/23 04:30:25;;;;;;;2.13;1.55;;;;;;;;;;5077077;28;20315;-59
2023/06/23 04:32:52;;;;;;;2.20;1.67;;;;;;;;;;5077418;28;20584;-59
2023/06/23 04:35:21;;;;;;;2.03;1.77;;;;;;;;;;5076826;28;20286;-59
2023/06/23 04:37:50;;;;;;;3.03;1.60;;;;;;;;;;5077111;28;20336;-59
2023/06/23 04:40:22;;;;;;;1.88;1.70;;;;;;;;;;5080963;28;20615;-59
2023/06/23 04:42:50;;;;;;;1.60;1.50;;;;;;;;;;5096867;28;20231;-59
2023/06/23 04:45:19;;;;;;;2.85;1.40;;;;;;;;;;5088740;28;20287;-59
2023/06/23 04:47:50;;;;;;;3.03;1.40;;;;;;;;;;5076348;28;20298;-59
2023/06/23 04:50:18;;;;;;;1.85;1.30;;;;;;;;;;5068303;28;20204;-59
2023/06/23 04:52:50;;;;;;;1.42;1.30;;;;;;;;;;5076222;28;20200;-59
2023/06/23 04:55:19;;;;;;;1.40;1.30;;;;;;;;;;5067211;28;20646;-59
2023/06/23 04:57:47;;;;;;;1.20;1.10;;;;;;;;;;5076025;28;20287;-59
2023/06/23 05:00:16;;;;;;;2.28;1.25;;;;;;;;;;5075976;28;20247;-60
2023/06/23 05:02:44;;;;;;;1.55;1.20;;;;;;;;;;5075729;28;20211;-59
2023/06/23 05:05:14;;;;;;;1.33;1.20;;;;;;;;;;5073972;28;20262;-59
2023/06/23 05:07:42;;;;;;;1.92;1.30;;;;;;;;;;5074538;28;20204;-59
2023/06/23 05:10:13;;;;;;;2.17;1.60;;;;;;;;;;5075581;28;20199;-59
2023/06/23 05:12:42;;;;;;;1.77;1.55;;;;;;;;;;5075804;28;20291;-59
2023/06/23 05:15:10;;;;;;;1.77;1.67;;;;;;;;;;5075871;28;20232;-59
2023/06/23 05:17:40;;;;;;;2.67;1.83;;;;;;;;;;5075138;28;20325;-59
2023/06/23 05:20:10;;;;;;;1.90;1.80;;;;;;;;;;5078328;28;20282;-59
2023/06/23 05:22:37;;;;;;;1.80;1.70;;;;;;;;;;5074366;28;20211;-59
2023/06/23 05:25:06;;;;;;;2.35;2.15;;;;;;;;;;5074280;28;20203;-59
2023/06/23 05:27:36;;;;;;;2.97;2.60;;;;;;;;;;5077929;28;20196;-59
2023/06/23 05:30:05;;;;;;;3.10;2.80;;;;;;;;;;5094907;28;20298;-59
2023/06/23 05:32:33;;;;;;;3.22;2.90;;;;;;;;;;5094025;28;20199;-59
2023/06/23 05:35:02;;;;;;;2.88;2.67;;;;;;;;;;5095526;28;20290;-59
2023/06/23 05:37:30;;;;;;;3.22;2.90;;;;;;;;;;5095051;28;20288;-59
2023/06/23 05:39:58;;;;;;;3.10;2.90;;;;;;;;;;5095260;28;20224;-59
2023/06/23 05:42:27;;;;;;;2.60;2.40;;;;;;;;;;5095264;28;20199;-59
2023/06/23 05:44:56;;;;;;;3.05;2.85;;;;;;;;;;5094284;28;20243;-59
2023/06/23 05:47:25;;;;;;;2.78;2.58;;;;;;;;;;5089408;28;20294;-59
2023/06/23 05:49:54;;;;;;;3.35;3.00;;;;;;;;;;5074027;28;20295;-59
2023/06/23 05:52:23;;;;;;;3.03;2.72;;;;;;;;;;5074115;28;20200;-59
2023/06/23 05:54:52;;;;;;;3.13;2.92;;;;;;;;;;5075556;28;20204;-59
2023/06/23 05:57:22;;;;;;;2.95;2.75;;;;;;;;;;5074494;28;20287;-59
2023/06/23 05:59:54;;;;;;;3.08;2.88;;;;;;;;;;5074081;28;20569;-59
2023/06/23 06:02:26;;;;;;;2.80;2.60;;;;;;;;;;5074900;28;20205;-59
2023/06/23 06:05:00;;;;;;;3.30;3.00;;;;;;;;;;5074651;28;20214;-59
2023/06/23 06:07:29;;;;;;;3.67;3.10;;;;;;;;;;5074952;28;20277;-59
2023/06/23 06:09:57;;;;;;;3.30;3.00;;;;;;;;;;5075635;28;20197;-59
2023/06/23 06:12:26;;;;;;;3.42;3.13;;;;;;;;;;5074472;28;20494;-59
2023/06/23 06:14:53;;;;;;;3.17;2.78;;;;;;;;;;5077323;28;20294;-59
2023/06/23 06:17:23;;;;;;;2.88;2.67;;;;;;;;;;5075200;28;20210;-59
2023/06/23 06:19:51;;;;;;;3.30;2.67;;;;;;;;;;5078190;28;20225;-59
2023/06/23 06:22:19;;;;;;;3.40;3.10;;;;;;;;;;5078314;28;20204;-59
2023/06/23 06:24:48;;;;;;;4.05;2.50;;;;;;;;;;5077791;28;20232;-59
2023/06/23 06:27:16;;;;;;;3.28;2.97;;;;;;;;;;5077912;28;20205;-59
2023/06/23 06:29:44;;;;;;;3.20;2.95;;;;;;;;;;5077714;28;20673;-59
2023/06/23 06:32:12;;;;;;;2.78;2.58;;;;;;;;;;5078493;28;20208;-59
2023/06/23 06:34:42;;;;;;;2.70;2.50;;;;;;;;;;5085975;28;20298;-59
2023/06/23 06:37:11;;;;;;;3.50;3.20;;;;;;;;;;5079444;28;20264;-59
2023/06/23 06:39:39;;;;;;;3.40;2.58;;;;;;;;;;5082375;28;20216;-59
2023/06/23 06:42:09;;;;;;;4.50;2.80;;;;;;;;;;5098896;28;20214;-59
2023/06/23 06:44:36;;;;;;;2.97;2.78;;;;;;;;;;5098902;28;20203;-59
2023/06/23 06:47:05;;;;;;;3.88;3.00;;;;;;;;;;5098250;28;20230;-59
2023/06/23 06:49:32;;;;;;;3.13;2.83;;;;;;;;;;5098159;28;20654;-59
2023/06/23 06:52:03;;;;;;;2.90;2.60;;;;;;;;;;5091045;28;20283;-59
2023/06/23 06:54:30;;;;;;;2.90;2.70;;;;;;;;;;5078157;28;20316;-59
2023/06/23 06:56:58;;;;;;;2.80;2.60;;;;;;;;;;5077268;28;20658;-59
2023/06/23 06:59:25;;;;;;;2.45;2.28;;;;;;;;;;5083963;28;20657;-59
2023/06/23 07:01:54;;;;;;;2.70;2.50;;;;;;;;;;5092670;28;20291;-59
2023/06/23 07:04:22;;;;;;;2.58;2.33;;;;;;;;;;5115941;28;20707;-59
2023/06/23 07:06:53;;;;;;;2.40;2.20;;;;;;;;;;5112793;28;20195;-59
2023/06/23 07:09:22;;;;;;;2.58;2.20;;;;;;;;;;5097386;28;20196;-59
2023/06/23 07:11:50;;;;;;;2.17;1.98;;;;;;;;;;5092375;28;20235;-59
2023/06/23 07:14:17;;;;;;;3.15;2.08;;;;;;;;;;5077475;28;20295;-59
2023/06/23 07:16:45;;;;;;;2.50;2.30;;;;;;;;;;5077267;28;20299;-59
2023/06/23 07:19:12;;;;;;;2.33;2.08;;;;;;;;;;5080968;28;20691;-59
2023/06/23 07:21:40;;;;;;;2.10;1.92;;;;;;;;;;5082003;28;20207;-59
2023/06/23 07:24:08;;;;;;;2.50;2.30;;;;;;;;;;5086426;28;20192;-59
2023/06/23 07:26:37;;;;;;;2.17;2.08;;;;;;;;;;5089486;28;20208;-59
2023/06/23 07:29:04;;;;;;;2.45;2.03;;;;;;;;;;5076673;28;20219;-59
2023/06/23 07:31:33;;;;;;;2.00;1.90;;;;;;;;;;5076696;28;20299;-59
2023/06/23 07:34:00;;;;;;;2.28;2.08;;;;;;;;;;5076938;28;20543;-59
2023/06/23 07:36:28;;;;;;;2.20;2.10;;;;;;;;;;5092479;28;20243;-59
2023/06/23 07:38:55;;;;;;;2.33;2.20;;;;;;;;;;5087643;28;20212;-59
2023/06/23 07:41:23;;;;;;;2.40;2.20;;;;;;;;;;5076903;28;20291;-59
2023/06/23 07:43:51;;;;;;;2.20;2.05;;;;;;;;;;5076996;28;20218;-59
2023/06/23 07:46:19;;;;;;;2.25;1.90;;;;;;;;;;5076970;28;20215;-59
2023/06/23 07:48:46;;;;;;;2.20;2.00;;;;;;;;;;5075980;28;20204;-59
2023/06/23 07:51:14;;;;;;;1.90;1.80;;;;;;;;;;5076618;28;20319;-59
2023/06/23 07:53:41;;;;;;;2.13;1.92;;;;;;;;;;5077106;28;20298;-59
2023/06/23 07:56:11;;;;;;;1.70;1.48;;;;;;;;;;5077469;28;20619;-59
2023/06/23 07:58:38;;;;;;;1.92;1.83;;;;;;;;;;5076715;28;20216;-59
2023/06/23 08:01:07;;;;;;;2.40;1.75;;;;;;;;;;5081111;28;20225;-59
2023/06/23 08:03:35;;;;;;;1.48;1.38;;;;;;;;;;5076837;28;20204;-59
2023/06/23 08:06:03;;;;;;;1.35;1.25;;;;;;;;;;5076481;28;20307;-59
2023/06/23 08:08:32;;;;;;;1.65;1.55;;;;;;;;;;5076586;28;20208;-59
2023/06/23 08:11:00;;;;;;;2.03;1.40;;;;;;;;;;5077244;28;20205;-59
2023/06/23 08:13:27;;;;;;;1.60;1.50;;;;;;;;;;5077168;28;20196;-59
2023/06/23 08:15:55;;;;;;;1.70;1.25;;;;;;;;;;5076449;28;20908;-59
2023/06/23 08:18:23;;;;;;;1.60;1.50;;;;;;;;;;5080083;28;20303;-59
2023/06/23 08:20:51;;;;;;;1.48;1.38;;;;;;;;;;5076143;28;20718;-59
2023/06/23 08:23:18;;;;;;;1.65;1.20;;;;;;;;;;5076760;28;20243;-59
2023/06/23 08:25:46;;;;;;;1.35;1.25;;;;;;;;;;5076227;28;20282;-59
2023/06/23 08:28:14;;;;;;;1.33;1.23;;;;;;;;;;5075971;28;20610;-59
2023/06/23 08:30:41;;;;;;;2.50;1.20;;;;;;;;;;5080196;28;20201;-59
2023/06/23 08:33:09;;;;;;;1.60;1.50;;;;;;;;;;5094654;28;20509;-59
2023/06/23 08:35:38;;;;;;;1.58;1.25;;;;;;;;;;5091345;28;20197;-59
2023/06/23 08:38:06;;;;;;;1.27;1.20;;;;;;;;;;5076258;28;20232;-59
2023/06/23 08:40:34;;;;;;;1.58;1.20;;;;;;;;;;5075267;28;20673;-59
2023/06/23 08:43:02;;;;;;;1.38;1.27;;;;;;;;;;5075611;28;20214;-59
2023/06/23 08:45:30;;;;;;;1.80;1.13;;;;;;;;;;5075206;28;20216;-59
2023/06/23 08:47:59;;;;;;;1.52;0.93;;;;;;;;;;5082181;28;20235;-59
2023/06/23 08:50:26;;;;;;;1.10;1.00;;;;;;;;;;5096252;28;20606;-59
2023/06/23 08:52:58;;;;;;;1.13;1.02;;;;;;;;;;5091429;28;20618;-59
2023/06/23 08:55:26;;;;;;;1.20;1.10;;;;;;;;;;5095979;28;20204;-59
2023/06/23 08:58:00;;;;;;;0.80;0.80;;;;;;;;;;5096253;28;20303;-59
2023/06/23 09:00:27;;;;;;;0.90;0.90;;;;;;;;;;5095817;28;20223;-59
2023/06/23 09:02:55;;;;;;;1.33;0.80;;;;;;;;;;5095735;28;20207;-59
2023/06/23 09:05:22;;;;;;;1.48;0.98;;;;;;;;;;5095265;28;20199;-59
2023/06/23 09:07:50;;;;;;;1.00;0.90;;;;;;;;;;5095448;28;20207;-58
2023/06/23 09:10:19;;;;;;;1.45;0.90;;;;;;;;;;5095314;28;20598;-60
2023/06/23 09:13:06;;;;;;;1.15;1.05;;;;;;;;;;5093399;28;20276;-60
2023/06/23 09:15:34;;;;;;;0.80;0.80;;;;;;;;;;5095069;28;20211;-60
2023/06/23 09:18:03;;;;;;;1.55;0.80;;;;;;;;;;5094557;28;20203;-60
2023/06/23 09:20:31;;;;;;;0.80;0.80;;;;;;;;;;5094736;28;20269;-60
2023/06/23 09:22:59;;;;;;;0.73;0.73;;;;;;;;;;5095213;28;20210;-60
2023/06/23 09:25:39;;;;;;;0.82;0.80;;;;;;;;;;5094941;28;20199;-60
2023/06/23 09:28:07;;;;;;;1.08;0.80;;;;;;;;;;5095302;28;20207;-60
2023/06/23 09:30:35;;;;;;;1.95;0.65;;;;;;;;;;5094132;28;20306;-60
2023/06/23 09:33:05;;;;;;;0.70;0.70;;;;;;;;;;5094899;28;20440;-61
2023/06/23 09:35:32;;;;;;;1.27;0.80;;;;;;;;;;5094857;28;20575;-60
2023/06/23 09:38:00;;;;;;;0.70;0.70;;;;;;;;;;5093945;28;20341;-60
2023/06/23 09:40:27;;;;;;;0.68;0.68;;;;;;;;;;5095090;28;20602;-60
2023/06/23 09:42:59;;;;;;;0.68;0.68;;;;;;;;;;5095533;28;20333;-60
2023/06/23 09:45:26;;;;;;;1.05;0.60;;;;;;;;;;5094655;28;20238;-60
2023/06/23 09:47:54;;;;;;;1.02;0.70;;;;;;;;;;5094086;28;20204;-60
2023/06/23 09:50:25;;;;;;;1.35;0.80;;;;;;;;;;5094531;28;20200;-60
2023/06/23 09:53:02;;;;;;;0.63;0.63;;;;;;;;;;5096671;28;20195;-60
2023/06/23 09:55:31;;;;;;;2.08;0.80;;;;;;;;;;5098312;28;20206;-60
2023/06/23 09:58:00;;;;;;;1.00;0.60;;;;;;;;;;5097829;28;20306;-60
2023/06/23 10:00:31;;;;;;;1.25;0.63;;;;;;;;;;5097756;28;20230;-60
2023/06/23 10:02:59;;;;;;;0.60;0.55;;;;;;;;;;5098835;28;20213;-60
2023/06/23 10:05:27;;;;;;;0.60;0.55;;;;;;;;;;5097608;28;20271;-60
2023/06/23 10:08:06;;;;;;;0.82;0.82;;;;;;;;;;5099124;28;20208;-60
2023/06/23 10:10:34;;;;;;;0.73;0.70;;;;;;;;;;5098688;28;20200;-60
2023/06/23 10:13:03;;;;;;;0.68;0.68;;;;;;;;;;5098674;28;20200;-60
2023/06/23 10:15:30;;;;;;;1.10;0.65;;;;;;;;;;5098357;28;20226;-60
2023/06/23 10:17:58;;;;;;;1.40;0.60;;;;;;;;;;5098161;28;20298;-60
2023/06/23 10:20:25;;;;;;;0.95;0.73;;;;;;;;;;5098427;28;20314;-60
2023/06/23 10:22:53;;;;;;;0.70;0.70;;;;;;;;;;5098544;28;20204;-60
2023/06/23 10:25:22;;;;;;;0.60;0.60;;;;;;;;;;5097819;28;20214;-60
2023/06/23 10:27:51;;;;;;;1.95;0.70;;;;;;;;;;5097117;28;20200;-60
2023/06/23 10:30:20;;;;;;;0.70;0.70;;;;;;;;;;5096846;28;20207;-60
2023/06/23 10:32:56;;;;;;;0.80;0.80;;;;;;;;;;5096229;28;20599;-60
2023/06/23 10:35:24;;;;;;;0.60;0.60;;;;;;;;;;5097237;28;20306;-60
2023/06/23 10:37:55;;;;;;;1.15;0.70;;;;;;;;;;5097357;28;20322;-60
2023/06/23 10:40:24;;;;;;;0.80;0.80;;;;;;;;;;5096682;28;20231;-60
2023/06/23 10:42:52;;;;;;;0.60;0.60;;;;;;;;;;5097090;28;20230;-60
2023/06/23 10:45:21;;;;;;;0.57;0.57;;;;;;;;;;5097311;28;20306;-60
2023/06/23 10:47:49;;;;;;;0.63;0.60;;;;;;;;;;5097154;28;20218;-60
2023/06/23 10:50:17;;;;;;;0.70;0.70;;;;;;;;;;5096837;28;20610;-60
2023/06/23 10:52:44;;;;;;;0.60;0.52;;;;;;;;;;5096844;28;20294;-60
2023/06/23 10:55:30;;;;;;;0.50;0.50;;;;;;;;;;5097086;28;20232;-60
2023/06/23 10:58:08;;;;;;;0.52;0.50;;;;;;;;;;5097135;28;20213;-60
2023/06/23 11:00:37;;;;;;;0.57;0.50;;;;;;;;;;5093518;28;20660;-60
2023/06/23 11:03:08;;;;;;;0.50;0.50;;;;;;;;;;5095227;28;20204;-60
2023/06/23 11:05:37;;;;;;;0.77;0.60;;;;;;;;;;5095316;28;20199;-60
2023/06/23 11:08:05;;;;;;;0.80;0.50;;;;;;;;;;5095634;28;20239;-60
2023/06/23 11:10:49;;;;;;;1.35;0.50;;;;;;;;;;5095817;28;20235;-60
2023/06/23 11:13:16;;;;;;;0.50;0.50;;;;;;;;;;5096189;28;20298;-60
2023/06/23 11:15:52;;;;;;;0.45;0.45;;;;;;;;;;5096511;28;20593;-60
2023/06/23 11:18:22;;;;;;;0.75;0.50;;;;;;;;;;5096441;28;20311;-60
2023/06/23 11:20:49;;;;;;;0.65;0.60;;;;;;;;;;5095943;28;20257;-60
2023/06/23 11:23:17;;;;;;;0.60;0.40;;;;;;;;;;5096020;28;20214;-60
2023/06/23 11:25:47;;;;;;;0.50;0.50;;;;;;;;;;5096091;28;20207;-60
2023/06/23 11:28:33;;;;;;;1.55;0.55;;;;;;;;;;5095500;28;20202;-60
2023/06/23 11:31:14;;;;;;;0.63;0.60;;;;;;;;;;5096377;28;20203;-60
2023/06/23 11:33:42;;;;;;;0.65;0.47;;;;;;;;;;5095855;28;20207;-60
2023/06/23 11:36:11;;;;;;;0.40;0.40;;;;;;;;;;5095455;28;20612;-60
2023/06/23 11:38:39;;;;;;;0.50;0.50;;;;;;;;;;5095524;28;20318;-60
2023/06/23 11:41:08;;;;;;;0.98;0.55;;;;;;;;;;5095260;28;20238;-60
2023/06/23 11:43:37;;;;;;;0.40;0.30;;;;;;;;;;5095890;28;20204;-60
2023/06/23 11:46:07;;;;;;;0.70;0.38;;;;;;;;;;5095899;28;20211;-60
2023/06/23 11:48:37;;;;;;;0.35;0.35;;;;;;;;;;5095719;28;20206;-60
2023/06/23 11:51:04;;;;;;;0.50;0.40;;;;;;;;;;5096155;28;20504;-60
2023/06/23 11:53:32;;;;;;;1.75;0.40;;;;;;;;;;5093915;28;20249;-60
2023/06/23 11:56:00;;;;;;;0.40;0.40;;;;;;;;;;5096148;28;20206;-60
2023/06/23 11:58:30;;;;;;;0.43;0.35;;;;;;;;;;5095975;28;20208;-60
2023/06/23 12:00:58;;;;;;;0.70;0.40;;;;;;;;;;5095532;28;20678;-60
2023/06/23 12:03:26;;;;;;;0.40;0.30;;;;;;;;;;5095579;28;20205;-60
2023/06/23 12:05:54;;;;;;;0.50;0.30;;;;;;;;;;5095718;28;20226;-60
2023/06/23 12:08:25;;;;;;;0.65;0.30;;;;;;;;;;5096006;28;20204;-60
2023/06/23 12:10:53;;;;;;;0.40;0.30;;;;;;;;;;5095384;28;20196;-60
2023/06/23 12:13:21;;;;;;;0.40;0.30;;;;;;;;;;5094933;28;20477;-60
2023/06/23 12:15:49;;;;;;;0.35;0.20;;;;;;;;;;5095076;28;20572;-60
2023/06/23 12:18:16;;;;;;;0.20;0.20;;;;;;;;;;5095919;28;20294;-60
2023/06/23 12:20:46;;;;;;;0.20;0.20;;;;;;;;;;5092734;28;20220;-60
2023/06/23 12:23:15;;;;;;;0.30;0.30;;;;;;;;;;5095193;28;20758;-60
2023/06/23 12:25:43;;;;;;;0.30;0.30;;;;;;;;;;5094693;28;20253;-60
2023/06/23 12:28:13;;;;;;;0.30;0.30;;;;;;;;;;5095734;28;20324;-60
2023/06/23 12:30:41;;;;;;;0.88;0.30;;;;;;;;;;5095035;28;20207;-60
2023/06/23 12:33:16;;;;;;;0.13;0.10;;;;;;;;;;5095356;28;20265;-60
2023/06/23 12:35:56;;;;;;;0.20;0.10;;;;;;;;;;5094712;28;20260;-60
2023/06/23 12:38:25;;;;;;;0.30;0.20;;;;;;;;;;5094901;28;20246;-60
2023/06/23 12:40:53;;;;;;;0.43;0.17;;;;;;;;;;5095253;28;20619;-60
2023/06/23 12:43:20;;;;;;;0.28;0.10;;;;;;;;;;5095236;28;20294;-60
2023/06/23 12:45:49;;;;;;;0.10;0.10;;;;;;;;;;5095121;28;20259;-60
2023/06/23 12:48:17;;;;;;;0.20;0.10;;;;;;;;;;5093109;28;20204;-60
2023/06/23 12:50:45;;;;;;;0.20;0.10;;;;;;;;;;5093763;28;20605;-60
2023/06/23 12:53:13;;;;;;;0.10;0.10;;;;;;;;;;5094670;28;20582;-60
2023/06/23 12:55:42;;;;;;;0.10;0.10;;;;;;;;;;5095005;28;20195;-60
2023/06/23 12:58:09;;;;;;;0.40;0.10;;;;;;;;;;5094546;28;20199;-60
2023/06/23 13:00:37;;;;;;;0.20;0.10;;;;;;;;;;5094983;28;20709;-60
2023/06/23 13:03:04;;;;;;;0.10;0.10;;;;;;;;;;5094758;28;20265;-60
2023/06/23 13:05:32;;;;;;;0.10;0.10;;;;;;;;;;5094226;28;20286;-60
2023/06/23 13:08:00;;;;;;;0.52;0.10;;;;;;;;;;5094194;28;20196;-60
2023/06/23 13:10:27;;;;;;;0.10;0.10;;;;;;;;;;5094777;28;20292;-60
2023/06/23 13:12:56;;;;;;;0.20;0.10;;;;;;;;;;5095137;28;20214;-60
2023/06/23 13:15:24;;;;;;;0.15;0.10;;;;;;;;;;5094171;28;20206;-60
2023/06/23 13:17:52;;;;;;;0.10;0.10;;;;;;;;;;5094072;28;20203;-60
2023/06/23 13:20:19;;;;;;;0.10;0.10;;;;;;;;;;5094668;28;20203;-60
2023/06/23 13:22:47;;;;;;;0.90;0.20;;;;;;;;;;5094205;28;20279;-60
2023/06/23 13:25:14;;;;;;;0.10;0.10;;;;;;;;;;5094945;28;20290;-60
2023/06/23 13:27:42;;;;;;;0.10;0.10;;;;;;;;;;5094576;28;20293;-60
2023/06/23 13:30:11;;;;;;;0.10;0.10;;;;;;;;;;5093921;28;20214;-60
2023/06/23 13:32:40;;;;;;;0.38;0.10;;;;;;;;;;5094205;28;20196;-60
2023/06/23 13:35:08;;;;;;;0.25;0.10;;;;;;;;;;5093877;28;20252;-60
2023/06/23 13:37:37;;;;;;;0.20;0.20;;;;;;;;;;5093811;28;20270;-60
2023/06/23 13:40:05;;;;;;;0.52;0.08;;;;;;;;;;5093976;28;20204;-60
2023/06/23 13:42:32;;;;;;;0.00;0.00;;;;;;;;;;5093064;28;20223;-60
2023/06/23 13:45:00;;;;;;;0.60;0.20;;;;;;;;;;5094935;28;20203;-60
2023/06/23 13:47:29;;;;;;;0.30;0.10;;;;;;;;;;5094262;28;20195;-60
2023/06/23 13:49:57;;;;;;;0.10;0.10;;;;;;;;;;5094635;28;20210;-60
2023/06/23 13:52:24;;;;;;;0.08;0.08;;;;;;;;;;5094729;28;20222;-60
2023/06/23 13:54:52;;;;;;;0.17;0.10;;;;;;;;;;5094258;28;20298;-60
2023/06/23 13:57:19;;;;;;;0.10;0.10;;;;;;;;;;5094566;28;20214;-60
2023/06/23 13:59:47;;;;;;;0.20;0.10;;;;;;;;;;5094950;28;20302;-60
2023/06/23 14:02:14;;;;;;;0.10;0.10;;;;;;;;;;5094657;28;20621;-60
2023/06/23 14:04:43;;;;;;;0.00;0.00;;;;;;;;;;5094984;28;20206;-60
2023/06/23 14:07:11;;;;;;;0.13;0.13;;;;;;;;;;5094261;28;20292;-60
2023/06/23 14:09:40;;;;;;;0.10;0.10;;;;;;;;;;5092758;28;20294;-60
2023/06/23 14:12:08;;;;;;;0.10;0.10;;;;;;;;;;5094142;28;20199;-60
2023/06/23 14:14:36;;;;;;;0.10;0.10;;;;;;;;;;5094448;28;20532;-60
2023/06/23 14:17:03;;;;;;;0.20;0.10;;;;;;;;;;5093757;28;20213;-60
2023/06/23 14:19:31;;;;;;;0.75;0.30;;;;;;;;;;5094246;28;20204;-60
2023/06/23 14:22:00;;;;;;;0.10;0.10;;;;;;;;;;5093412;28;20238;-60
2023/06/23 14:24:27;;;;;;;0.10;0.10;;;;;;;;;;5094738;28;20200;-60
2023/06/23 14:26:55;;;;;;;0.10;0.10;;;;;;;;;;5093856;28;20204;-60
2023/06/23 14:29:22;;;;;;;0.30;0.10;;;;;;;;;;5093668;28;20199;-60
2023/06/23 14:31:50;;;;;;;0.20;0.10;;;;;;;;;;5093423;28;20213;-60
2023/06/23 14:34:17;;;;;;;0.10;0.10;;;;;;;;;;5093716;28;20203;-60
2023/06/23 14:36:45;;;;;;;0.10;0.10;;;;;;;;;;5091747;28;20211;-60
2023/06/23 14:42:18;;;;;;;0.10;0.10;;;;;;;;;;5098403;28;20276;-60
2023/06/23 14:44:45;;;;;;;0.15;0.10;;;;;;;;;;5098674;28;20243;-60
2023/06/23 14:47:12;;;;;;;0.10;0.10;;;;;;;;;;5098736;28;20306;-60
2023/06/23 14:49:40;;;;;;;0.10;0.10;;;;;;;;;;5098618;28;20207;-60
2023/06/23 14:52:07;;;;;;;0.10;0.10;;;;;;;;;;5097343;28;20307;-60
2023/06/23 14:54:35;;;;;;;0.10;0.10;;;;;;;;;;5098179;28;20306;-60
2023/06/23 14:57:03;;;;;;;0.63;0.10;;;;;;;;;;5098239;28;20227;-60